createdAt,value
2019-02-17T00:04:51.809Z,16.50
2019-02-17T00:09:58.406Z,13.50
2019-02-17T00:15:06.022Z,14.60
2019-02-17T00:20:12.546Z,16.40
2019-02-17T00:25:20.421Z,18.73
2019-02-17T00:30:26.770Z,16.60
2019-02-17T00:35:32.866Z,16.57
2019-02-17T00:40:38.799Z,19.80
2019-02-17T00:45:45.244Z,19.40
2019-02-17T00:50:50.824Z,15.00
2019-02-17T00:55:56.841Z,17.07
2019-02-17T01:01:03.157Z,17.90
2019-02-17T01:06:09.254Z,16.93
2019-02-17T01:11:15.417Z,107.90
2019-02-17T01:16:21.213Z,96.53
2019-02-17T01:21:26.871Z,21.37
2019-02-17T01:26:33.998Z,17.63
2019-02-17T01:31:39.713Z,18.37
2019-02-17T01:36:46.714Z,18.10
2019-02-17T01:41:52.994Z,18.63
2019-02-17T01:46:59.464Z,17.33
2019-02-17T01:52:05.519Z,19.43
2019-02-17T01:57:11.165Z,17.37
2019-02-17T02:02:17.709Z,18.97
2019-02-17T02:07:23.805Z,16.80
2019-02-17T02:12:29.685Z,15.93
2019-02-17T02:17:37.756Z,18.67
2019-02-17T02:22:46.019Z,17.70
2019-02-17T02:27:51.802Z,17.40
2019-02-17T02:32:59.819Z,16.53
2019-02-17T02:38:06.106Z,15.80
2019-02-17T02:43:11.647Z,22.03
2019-02-17T02:48:17.696Z,15.37
2019-02-17T02:53:23.751Z,17.33
2019-02-17T02:58:29.704Z,16.40
2019-02-17T03:03:35.497Z,15.43
2019-02-17T03:08:41.487Z,19.27
2019-02-17T03:13:47.295Z,14.27
2019-02-17T03:18:53.235Z,15.73
2019-02-17T03:23:58.916Z,15.50
2019-02-17T03:29:04.711Z,19.27
2019-02-17T03:34:10.655Z,15.57
2019-02-17T03:39:16.317Z,19.17
2019-02-17T03:44:23.049Z,17.53
2019-02-17T03:49:28.629Z,15.33
2019-02-17T03:54:34.309Z,14.67
2019-02-17T03:59:40.413Z,16.17
2019-02-17T04:04:46.010Z,16.47
2019-02-17T04:09:52.070Z,14.07
2019-02-17T04:14:57.989Z,14.73
2019-02-17T04:20:03.681Z,17.33
2019-02-17T04:25:09.363Z,15.20
2019-02-17T04:30:28.164Z,16.13
2019-02-17T04:35:24.193Z,16.63
2019-02-17T04:40:29.830Z,18.50
2019-02-17T04:45:35.771Z,14.33
2019-02-17T04:50:42.169Z,16.33
2019-02-17T04:55:47.816Z,16.30
2019-02-17T05:00:55.124Z,16.33
2019-02-17T05:06:02.319Z,14.83
2019-02-17T05:11:08.315Z,14.60
2019-02-17T05:16:14.386Z,18.77
2019-02-17T05:21:20.709Z,17.53
2019-02-17T05:26:26.698Z,17.00
2019-02-17T05:31:34.007Z,17.67
2019-02-17T05:36:39.740Z,17.87
2019-02-17T05:41:45.538Z,18.93
2019-02-17T05:46:51.433Z,16.53
2019-02-17T05:51:56.987Z,15.07
2019-02-17T05:57:04.620Z,19.60
2019-02-17T06:02:12.856Z,17.27
2019-02-17T06:07:21.072Z,17.53
2019-02-17T06:12:27.200Z,16.63
2019-02-17T06:17:33.144Z,17.20
2019-02-17T06:22:39.184Z,18.13
2019-02-17T06:27:45.914Z,18.77
2019-02-17T06:32:52.382Z,21.23
2019-02-17T06:37:58.457Z,14.00
2019-02-17T06:43:04.255Z,14.63
2019-02-17T06:48:10.043Z,15.87
2019-02-17T06:53:17.799Z,19.53
2019-02-17T06:58:23.470Z,17.00
2019-02-17T07:03:30.774Z,18.33
2019-02-17T07:08:36.416Z,16.83
2019-02-17T07:13:42.943Z,18.00
2019-02-17T07:18:48.670Z,16.63
2019-02-17T07:23:55.245Z,16.43
2019-02-17T07:29:01.452Z,17.77
2019-02-17T07:34:07.535Z,19.20
2019-02-17T07:39:14.065Z,18.60
2019-02-17T07:44:19.811Z,17.77
2019-02-17T07:49:26.194Z,18.10
2019-02-17T07:54:33.287Z,19.67
2019-02-17T07:59:40.496Z,15.53
2019-02-17T08:04:47.836Z,23.30
2019-02-17T08:09:55.545Z,19.83
2019-02-17T08:15:01.291Z,17.80
2019-02-17T08:20:10.475Z,18.47
2019-02-17T08:25:21.822Z,19.10
2019-02-17T08:30:25.738Z,19.73
2019-02-17T08:35:32.964Z,17.33
2019-02-17T08:40:41.466Z,18.73
2019-02-17T08:45:47.264Z,20.23
2019-02-17T08:50:54.692Z,20.90
2019-02-17T08:56:00.631Z,23.13
2019-02-17T09:01:07.738Z,20.53
2019-02-17T09:06:15.535Z,28.20
2019-02-17T09:11:21.135Z,20.70
2019-02-17T09:16:28.130Z,20.87
2019-02-17T09:21:34.154Z,22.30
2019-02-17T09:26:39.735Z,23.27
2019-02-17T09:31:47.019Z,23.20
2019-02-17T09:36:52.620Z,25.90
2019-02-17T09:41:59.300Z,27.83
2019-02-17T09:47:05.081Z,26.07
2019-02-17T09:52:11.583Z,25.50
2019-02-17T09:57:17.555Z,23.40
2019-02-17T10:02:26.818Z,26.07
2019-02-17T10:07:33.436Z,25.77
2019-02-17T10:12:39.857Z,25.70
2019-02-17T10:17:47.041Z,28.93
2019-02-17T10:22:52.994Z,30.70
2019-02-17T10:27:59.880Z,27.17
2019-02-17T10:33:06.252Z,33.27
2019-02-17T10:38:11.823Z,28.33
2019-02-17T10:43:17.630Z,30.53
2019-02-17T10:48:24.090Z,27.73
2019-02-17T10:53:30.310Z,27.03
2019-02-17T10:58:36.013Z,25.57
2019-02-17T11:03:45.536Z,30.27
2019-02-17T11:08:52.727Z,31.50
2019-02-17T11:14:00.388Z,27.33
2019-02-17T11:19:08.709Z,28.17
2019-02-17T11:24:16.155Z,31.63
2019-02-17T11:29:21.985Z,28.00
2019-02-17T11:34:28.217Z,31.97
2019-02-17T11:39:34.623Z,34.37
2019-02-17T11:44:40.672Z,30.93
2019-02-17T11:49:47.236Z,32.97
2019-02-17T11:54:55.989Z,26.23
2019-02-17T12:00:03.677Z,33.00
2019-02-17T12:05:12.293Z,31.50
2019-02-17T12:10:19.414Z,44.70
2019-02-17T12:15:25.053Z,27.62
2019-02-17T12:20:39.458Z,29.85
2019-02-17T12:26:03.569Z,23.45
2019-02-17T12:31:10.897Z,27.58
2019-02-17T12:36:18.447Z,28.12
2019-02-17T12:41:24.489Z,27.93
2019-02-17T12:46:31.170Z,26.00
2019-02-17T12:51:39.066Z,33.02
2019-02-17T12:56:49.051Z,29.10
2019-02-17T13:01:56.953Z,29.02
2019-02-17T13:07:03.138Z,37.53
2019-02-17T13:12:11.136Z,29.82
2019-02-17T13:17:17.345Z,34.13
2019-02-17T13:22:24.780Z,32.67
2019-02-17T13:27:36.707Z,33.30
2019-02-17T13:32:46.693Z,33.88
2019-02-17T13:37:58.553Z,33.50
2019-02-17T13:43:07.553Z,28.15
2019-02-17T13:48:18.797Z,32.30
2019-02-17T13:53:26.859Z,27.65
2019-02-17T13:58:34.949Z,29.15
2019-02-17T14:03:48.831Z,32.28
2019-02-17T14:08:56.807Z,43.55
2019-02-17T14:14:05.945Z,31.82
2019-02-17T14:19:14.635Z,33.92
2019-02-17T14:24:22.682Z,35.45
2019-02-17T14:29:29.792Z,39.30
2019-02-17T14:34:36.636Z,41.13
2019-02-17T14:39:51.710Z,33.75
2019-02-17T14:45:00.714Z,39.38
2019-02-17T14:50:10.930Z,38.38
2019-02-17T14:55:17.841Z,30.23
2019-02-17T15:00:24.993Z,36.85
2019-02-17T15:05:34.953Z,33.78
2019-02-17T15:10:48.213Z,29.85
2019-02-17T15:15:57.633Z,40.48
2019-02-17T15:21:09.261Z,35.23
2019-02-17T15:26:16.711Z,34.03
2019-02-17T15:31:24.870Z,36.20
2019-02-17T15:36:35.239Z,32.42
2019-02-17T15:41:43.968Z,34.05
2019-02-17T15:46:50.880Z,36.28
2019-02-17T15:51:58.000Z,33.63
2019-02-17T15:57:03.918Z,32.70
2019-02-17T16:02:11.517Z,71.17
2019-02-17T16:07:19.034Z,39.47
2019-02-17T16:12:26.180Z,36.35
2019-02-17T16:17:32.204Z,35.93
2019-02-17T16:22:39.968Z,36.13
2019-02-17T16:27:49.102Z,40.47
2019-02-17T16:32:56.206Z,39.17
2019-02-17T16:38:05.228Z,42.77
2019-02-17T16:43:13.445Z,105.37
2019-02-17T16:48:20.775Z,43.17
2019-02-17T16:53:27.431Z,43.73
2019-02-17T16:58:35.316Z,39.10
2019-02-17T17:03:42.475Z,40.43
2019-02-17T17:08:49.044Z,35.87
2019-02-17T17:13:56.170Z,33.57
2019-02-17T17:19:02.208Z,32.97
2019-02-17T17:24:10.191Z,35.30
2019-02-17T17:29:16.206Z,34.70
2019-02-17T17:34:22.994Z,33.77
2019-02-17T17:39:28.670Z,31.83
2019-02-17T17:44:36.011Z,37.80
2019-02-17T17:49:42.367Z,33.23
2019-02-17T17:54:48.702Z,35.90
2019-02-17T17:59:54.659Z,35.20
2019-02-17T18:05:08.812Z,29.40
2019-02-17T18:10:14.976Z,32.80
2019-02-17T18:15:21.637Z,32.07
2019-02-17T18:20:28.087Z,33.37
2019-02-17T18:25:35.701Z,32.57
2019-02-17T18:30:44.215Z,32.60
2019-02-17T18:35:52.362Z,29.80
2019-02-17T18:40:59.219Z,33.90
2019-02-17T18:46:05.622Z,30.73
2019-02-17T18:51:12.447Z,34.97
2019-02-17T18:56:18.025Z,35.87
2019-02-17T19:01:24.531Z,34.63
2019-02-17T19:06:30.108Z,35.40
2019-02-17T19:11:35.773Z,31.67
2019-02-17T19:16:41.861Z,36.47
2019-02-17T19:21:48.246Z,35.73
2019-02-17T19:26:54.425Z,32.30
2019-02-17T19:32:02.303Z,35.97
2019-02-17T19:37:09.169Z,30.47
2019-02-17T19:42:17.496Z,33.17
2019-02-17T19:47:24.427Z,33.00
2019-02-17T19:52:30.538Z,36.53
2019-02-17T19:57:36.826Z,35.87
2019-02-17T20:02:59.439Z,36.63
2019-02-17T20:08:05.774Z,32.00
2019-02-17T20:13:12.430Z,31.10
2019-02-17T20:18:18.883Z,30.73
2019-02-17T20:23:24.664Z,68.00
2019-02-17T20:28:42.497Z,33.53
2019-02-17T20:33:39.938Z,32.73
2019-02-17T20:38:45.980Z,30.70
2019-02-17T20:43:52.473Z,31.77
2019-02-17T20:48:59.351Z,31.87
2019-02-17T20:54:05.469Z,31.20
2019-02-17T20:59:12.588Z,35.60
2019-02-17T21:04:18.624Z,34.17
2019-02-17T21:09:24.759Z,33.43
2019-02-17T21:14:31.002Z,34.50
2019-02-17T21:19:36.911Z,35.63
2019-02-17T21:24:42.756Z,35.00
2019-02-17T21:29:48.686Z,35.60
2019-02-17T21:34:54.342Z,35.77
2019-02-17T21:40:00.508Z,36.13
2019-02-17T21:45:12.125Z,35.57
2019-02-17T21:50:18.097Z,37.47
2019-02-17T21:55:25.908Z,34.57
2019-02-17T22:00:31.687Z,35.73
2019-02-17T22:05:37.678Z,36.37
2019-02-17T22:10:43.253Z,34.77
2019-02-17T22:15:49.151Z,33.27
2019-02-17T22:20:55.100Z,37.17
2019-02-17T22:26:00.960Z,37.00
2019-02-17T22:31:06.557Z,36.53
2019-02-17T22:36:13.201Z,33.40
2019-02-17T22:41:19.377Z,33.27
2019-02-17T22:46:25.115Z,39.23
2019-02-17T22:51:31.404Z,32.90
2019-02-17T22:56:36.992Z,33.97
2019-02-17T23:01:43.314Z,33.73
2019-02-17T23:06:54.173Z,32.90
2019-02-17T23:11:57.303Z,34.83
2019-02-17T23:17:02.914Z,34.63
2019-02-17T23:22:09.198Z,37.10
2019-02-17T23:27:15.595Z,32.27
2019-02-17T23:32:21.247Z,43.77
2019-02-17T23:37:27.376Z,34.17
2019-02-17T23:42:33.565Z,34.73
2019-02-17T23:47:39.492Z,33.83
2019-02-17T23:52:45.540Z,34.33
2019-02-17T23:57:51.632Z,31.70
